Terminal Aerodrome Forecast
Issued by NWS

Home | Current Version | Previous Version | Graphics & Text | Print | Product List | Glossary On
Versions: 1 2 3 4 5 6 7 8 9 10 11 12 13 14 15 16 17 18
000
FTUS43 KMPX 291056 AAB
TAFAXN
TAF AMD
KAXN 291056Z 2911/3006 08012KT P6SM -SHRA SCT012 OVC025
      TEMPO 2911/2913 1 1/2SM +TSRA OVC012CB
     FM291300 19007KT P6SM SCT015 BKN035
     FM291500 25009KT P6SM SCT250
     FM292000 30005KT P6SM SCT060 BKN090
      TEMPO 2920/2923 -TSRA BKN060CB OVC090=

USA.gov is the U.S. government's official web portal to all federal, state and local government web resources and services.